Погода Новый Софпорогна неделю

Республика Карелия, Россия

22 - 28 июля
  • 22июля
    Сегодня
    +12°
    +24°
    Практически безоблачно
    ВремяПогодаТемператураВлажностьДавлениеВетер, м/сВероятность осадков
    00:00Ясно и безоблачно+13°C79 %754 мм3.0 м/с2 %
    03:00Ясно и безоблачно+8°C88 %754 мм1.7 м/с2 %
    06:00Практически безоблачно+11°C87 %754 мм1.2 м/с2 %
    09:00Практически безоблачно+17°C56 %755 мм1.1 м/с2 %
    12:00Небольшая облачность+21°C48 %755 мм1.6 м/с2 %
    15:00Практически безоблачно+23°C45 %754 мм1.7 м/с2 %
    18:00Практически безоблачно+23°C50 %754 мм2.1 м/с2 %
    21:00Ясно и безоблачно+20°C74 %754 мм1.4 м/с2 %
  • 23июля
    Вторник
    +13°
    +25°
    Облачно с прояснениями
    ВремяПогодаТемператураВлажностьДавлениеВетер, м/сВероятность осадков
    00:00Ясно и безоблачно+14°C91 %754 мм1.4 м/с2 %
    03:00Ясно и безоблачно+12°C86 %754 мм2.4 м/с2 %
    06:00Ясно и безоблачно+14°C88 %754 мм1.7 м/с2 %
    09:00Небольшая облачность+20°C67 %754 мм0.9 м/с2 %
    12:00Облачно с прояснениями+24°C46 %754 мм1.5 м/с2 %
    15:00Облачно с прояснениями+24°C42 %753 мм2.0 м/с2 %
    18:00Ясно и безоблачно+24°C46 %753 мм2.1 м/с2 %
    21:00Ясно и безоблачно+22°C72 %753 мм1.3 м/с2 %
  • 24июля
    Среда
    +15°
    +26°
    Пасмурно, сплошная облачность
    ВремяПогодаТемператураВлажностьДавлениеВетер, м/сВероятность осадков
    00:00Ясно и безоблачно+16°C83 %752 мм1.8 м/с2 %
    03:00Ясно и безоблачно+13°C88 %752 мм1.9 м/с2 %
    06:00Ясно и безоблачно+15°C90 %752 мм1.2 м/с2 %
    09:00Ясно и безоблачно+22°C68 %752 мм0.6 м/с2 %
    12:00Практически безоблачно+25°C45 %752 мм1.7 м/с2 %
    15:00Пасмурно, сплошная облачность+26°C43 %752 мм1.6 м/с3 %
    18:00Практически безоблачно+25°C53 %751 мм1.0 м/с2 %
    21:00Ясно и безоблачно+22°C85 %751 мм1.1 м/с2 %
  • 25июля
    Четверг
    +12°
    +26°
    Ясно и безоблачно
    ВремяПогодаТемператураВлажностьДавлениеВетер, м/сВероятность осадков
    00:00Практически безоблачно+20°C76 %751 мм1.0 м/с2 %
    03:00Ясно и безоблачно+17°C87 %751 мм0.2 м/с2 %
    06:00Практически безоблачно+17°C91 %751 мм1.3 м/с2 %
    09:00Ясно и безоблачно+22°C68 %751 мм1.2 м/с2 %
    12:00Практически безоблачно+25°C51 %751 мм2.5 м/с2 %
    15:00Ясно и безоблачно+25°C45 %751 мм2.7 м/с10 %
    18:00Практически безоблачно+25°C46 %751 мм2.3 м/с8 %
    21:00Практически безоблачно+21°C63 %751 мм2.2 м/с5 %
  • 26июля
    Пятница
    +14°
    +26°
    Ясно и безоблачно
    ВремяПогодаТемператураВлажностьДавлениеВетер, м/сВероятность осадков
    00:00Ясно и безоблачно+16°C77 %751 мм3.0 м/с2 %
    03:00Ясно и безоблачно+13°C83 %752 мм2.2 м/с2 %
    06:00Ясно и безоблачно+15°C84 %752 мм1.8 м/с2 %
    09:00Ясно и безоблачно+20°C61 %752 мм1.9 м/с4 %
    12:00Ясно и безоблачно+24°C47 %751 мм2.5 м/с5 %
    15:00Ясно и безоблачно+26°C42 %751 мм1.9 м/с12 %
    18:00Облачно с прояснениями+26°C45 %751 мм1.3 м/с11 %
    21:00Облачно с прояснениями+22°C62 %751 мм2.7 м/с3 %
Мы используем cookies
Соглашаюсь